sensor_id;sensor_type;location;lat;lon;timestamp;P1;durP1;ratioP1;P2;durP2;ratioP2
76685;SDS011;74474;44.556;0.108;2023-12-20T12:03:31;-1.00;;;-1.00;;
76685;SDS011;74474;44.556;0.108;2023-12-20T12:08:35;4.20;;;0.90;;
76685;SDS011;74474;44.556;0.108;2023-12-20T12:14:07;6.40;;;1.03;;
76685;SDS011;74474;44.556;0.108;2023-12-20T12:19:39;6.10;;;1.10;;
76685;SDS011;74474;44.556;0.108;2023-12-20T12:25:11;4.73;;;1.50;;
76685;SDS011;74474;44.556;0.108;2023-12-20T12:30:43;5.50;;;1.07;;
76685;SDS011;74474;44.556;0.108;2023-12-20T12:36:16;2.90;;;0.90;;
76685;SDS011;74474;44.556;0.108;2023-12-20T12:41:49;3.90;;;0.97;;
76685;SDS011;74474;44.556;0.108;2023-12-20T12:47:22;7.47;;;1.03;;
76685;SDS011;74474;44.556;0.108;2023-12-20T12:52:54;6.20;;;0.97;;
76685;SDS011;74474;44.556;0.108;2023-12-20T12:58:27;3.67;;;1.03;;
76685;SDS011;74474;44.556;0.108;2023-12-20T13:04:00;4.13;;;0.83;;
76685;SDS011;74474;44.556;0.108;2023-12-20T13:09:33;9.87;;;1.53;;
76685;SDS011;74474;44.556;0.108;2023-12-20T13:15:04;4.83;;;1.33;;
76685;SDS011;74474;44.556;0.108;2023-12-20T13:20:37;8.93;;;1.57;;
76685;SDS011;74474;44.556;0.108;2023-12-20T13:26:08;4.90;;;1.37;;
76685;SDS011;74474;44.556;0.108;2023-12-20T13:31:41;5.57;;;1.13;;
76685;SDS011;74474;44.556;0.108;2023-12-20T13:37:13;5.70;;;1.37;;
76685;SDS011;74474;44.556;0.108;2023-12-20T13:42:46;5.17;;;1.00;;
76685;SDS011;74474;44.556;0.108;2023-12-20T13:48:18;3.67;;;0.87;;
76685;SDS011;74474;44.556;0.108;2023-12-20T13:53:51;6.37;;;1.10;;
76685;SDS011;74474;44.556;0.108;2023-12-20T13:59:24;6.40;;;1.37;;
76685;SDS011;74474;44.556;0.108;2023-12-20T14:04:56;2.77;;;0.90;;
76685;SDS011;74474;44.556;0.108;2023-12-20T14:10:28;10.87;;;1.50;;
76685;SDS011;74474;44.556;0.108;2023-12-20T14:16:00;5.50;;;1.50;;
76685;SDS011;74474;44.556;0.108;2023-12-20T14:21:32;6.03;;;1.40;;
76685;SDS011;74474;44.556;0.108;2023-12-20T14:27:05;7.87;;;2.50;;
76685;SDS011;74474;44.556;0.108;2023-12-20T14:32:38;5.77;;;2.10;;
76685;SDS011;74474;44.556;0.108;2023-12-20T14:38:10;14.27;;;5.17;;
76685;SDS011;74474;44.556;0.108;2023-12-20T14:43:44;8.17;;;3.57;;
76685;SDS011;74474;44.556;0.108;2023-12-20T14:49:15;10.57;;;2.70;;
76685;SDS011;74474;44.556;0.108;2023-12-20T14:54:47;5.20;;;1.20;;
76685;SDS011;74474;44.556;0.108;2023-12-20T15:00:20;2.57;;;0.97;;
76685;SDS011;74474;44.556;0.108;2023-12-20T15:05:52;2.17;;;0.97;;
76685;SDS011;74474;44.556;0.108;2023-12-20T15:11:23;3.53;;;0.93;;
76685;SDS011;74474;44.556;0.108;2023-12-20T15:16:55;2.63;;;1.00;;
76685;SDS011;74474;44.556;0.108;2023-12-20T15:22:27;7.40;;;1.27;;
76685;SDS011;74474;44.556;0.108;2023-12-20T15:28:00;3.93;;;1.30;;
76685;SDS011;74474;44.556;0.108;2023-12-20T15:33:33;6.70;;;1.37;;
76685;SDS011;74474;44.556;0.108;2023-12-20T15:39:06;6.97;;;2.70;;
76685;SDS011;74474;44.556;0.108;2023-12-20T15:44:39;3.67;;;1.73;;
76685;SDS011;74474;44.556;0.108;2023-12-20T15:50:13;4.67;;;1.70;;
76685;SDS011;74474;44.556;0.108;2023-12-20T15:55:46;5.13;;;1.90;;
76685;SDS011;74474;44.556;0.108;2023-12-20T16:01:20;6.43;;;2.40;;
76685;SDS011;74474;44.556;0.108;2023-12-20T16:06:53;10.00;;;2.43;;
76685;SDS011;74474;44.556;0.108;2023-12-20T16:12:25;16.47;;;4.23;;
76685;SDS011;74474;44.556;0.108;2023-12-20T16:17:57;6.53;;;3.17;;
76685;SDS011;74474;44.556;0.108;2023-12-20T16:23:29;9.87;;;2.20;;
76685;SDS011;74474;44.556;0.108;2023-12-20T16:29:01;9.27;;;2.53;;
76685;SDS011;74474;44.556;0.108;2023-12-20T16:34:34;3.80;;;2.23;;
76685;SDS011;74474;44.556;0.108;2023-12-20T16:40:07;10.60;;;3.20;;
76685;SDS011;74474;44.556;0.108;2023-12-20T16:45:39;7.70;;;3.03;;
76685;SDS011;74474;44.556;0.108;2023-12-20T16:51:12;8.60;;;4.03;;
76685;SDS011;74474;44.556;0.108;2023-12-20T16:56:44;10.40;;;4.90;;
76685;SDS011;74474;44.556;0.108;2023-12-20T17:02:16;16.67;;;6.93;;
76685;SDS011;74474;44.556;0.108;2023-12-20T17:07:50;18.23;;;9.00;;
76685;SDS011;74474;44.556;0.108;2023-12-20T17:13:22;28.90;;;11.77;;
76685;SDS011;74474;44.556;0.108;2023-12-20T17:18:54;18.27;;;8.27;;
76685;SDS011;74474;44.556;0.108;2023-12-20T17:24:26;18.20;;;7.90;;
76685;SDS011;74474;44.556;0.108;2023-12-20T17:29:59;11.17;;;5.90;;
76685;SDS011;74474;44.556;0.108;2023-12-20T17:35:32;11.77;;;5.70;;
76685;SDS011;74474;44.556;0.108;2023-12-20T17:41:05;10.03;;;5.70;;
76685;SDS011;74474;44.556;0.108;2023-12-20T17:46:39;7.90;;;5.03;;
76685;SDS011;74474;44.556;0.108;2023-12-20T17:52:11;10.03;;;6.23;;
76685;SDS011;74474;44.556;0.108;2023-12-20T17:57:44;10.97;;;5.50;;
76685;SDS011;74474;44.556;0.108;2023-12-20T18:03:16;10.33;;;4.23;;
76685;SDS011;74474;44.556;0.108;2023-12-20T18:08:48;13.40;;;4.13;;
76685;SDS011;74474;44.556;0.108;2023-12-20T18:14:22;16.43;;;6.63;;
76685;SDS011;74474;44.556;0.108;2023-12-20T18:19:54;14.90;;;6.83;;
76685;SDS011;74474;44.556;0.108;2023-12-20T18:25:27;18.27;;;8.30;;
76685;SDS011;74474;44.556;0.108;2023-12-20T18:31:00;10.73;;;6.00;;
76685;SDS011;74474;44.556;0.108;2023-12-20T18:36:34;14.87;;;7.70;;
76685;SDS011;74474;44.556;0.108;2023-12-20T18:42:07;27.00;;;10.83;;
76685;SDS011;74474;44.556;0.108;2023-12-20T18:47:39;26.43;;;11.90;;
76685;SDS011;74474;44.556;0.108;2023-12-20T18:53:12;30.37;;;13.87;;
76685;SDS011;74474;44.556;0.108;2023-12-20T18:58:45;25.50;;;13.17;;
76685;SDS011;74474;44.556;0.108;2023-12-20T19:04:17;33.00;;;13.37;;
76685;SDS011;74474;44.556;0.108;2023-12-20T19:15:23;23.00;;;9.23;;
76685;SDS011;74474;44.556;0.108;2023-12-20T19:20:56;26.43;;;11.03;;
76685;SDS011;74474;44.556;0.108;2023-12-20T19:26:29;15.37;;;9.10;;
76685;SDS011;74474;44.556;0.108;2023-12-20T19:32:03;17.90;;;7.53;;
76685;SDS011;74474;44.556;0.108;2023-12-20T19:37:35;24.37;;;11.23;;
